Time;durP1;ratioP1;P1;durP2;ratioP2;P2;SDS_P1;SDS_P2;PMS_P1;PMS_P2;Temp;Humidity;BMP_temperature;BMP_pressure;BME280_temperature;BME280_humidity;BME280_pressure;Samples;Min_cycle;Max_cycle;Signal;HPM_P1;HPM_P2
2022/05/03 00:00:07;;;;;;;311.67;118.43;;;;;;;13.28;73.96;99453.22;415363;23;1375;-74
2022/05/03 00:00:17;;;;;;;313.00;119.13;;;;;;;13.18;73.89;99441.50;411532;23;1435;-74
2022/05/03 00:00:28;;;;;;;313.03;119.60;;;;;;;13.15;73.60;99449.53;411774;23;809;-74
2022/05/03 00:00:41;;;;;;;314.83;120.13;;;;;;;13.13;73.64;99448.75;412241;23;1295;-74
2022/05/03 00:01:23;;;;;;;314.73;121.05;;;;;;;13.12;73.97;99447.06;413761;23;1199;-74
2022/05/03 00:01:52;;;;;;;313.17;116.90;;;;;;;13.17;74.44;99449.47;408724;23;1178;-74
2022/05/03 00:02:20;;;;;;;311.42;117.97;;;;;;;13.19;74.83;99444.97;411630;23;1108;-74
2022/05/03 00:02:40;;;;;;;314.73;122.45;;;;;;;13.21;74.82;99435.25;410309;23;847;-74
2022/05/03 00:03:11;;;;;;;315.95;122.60;;;;;;;13.23;74.78;99446.50;416871;23;770;-74
2022/05/03 00:03:24;;;;;;;314.13;119.88;;;;;;;13.22;75.08;99450.06;417927;23;864;-74
2022/05/03 00:04:07;;;;;;;314.00;119.72;;;;;;;13.25;74.54;99453.38;415854;23;885;-74
2022/05/03 00:04:20;;;;;;;310.60;120.18;;;;;;;13.17;74.63;99452.09;408005;23;1200;-74
2022/05/03 00:04:33;;;;;;;311.13;120.60;;;;;;;13.16;74.84;99443.38;411488;23;1295;-74
2022/05/03 00:04:50;;;;;;;313.05;119.90;;;;;;;13.17;74.63;99452.09;411716;23;841;-74
2022/05/03 00:05:04;;;;;;;313.10;119.45;;;;;;;13.16;74.88;99445.16;412198;23;999;-74
2022/05/03 00:05:30;;;;;;;311.85;120.15;;;;;;;13.17;75.01;99449.47;412209;23;825;-74
2022/05/03 00:06:12;;;;;;;309.05;117.82;;;;;;;12.99;74.64;99449.53;413433;23;1540;-74
2022/05/03 00:06:29;;;;;;;316.85;119.72;;;;;;;12.94;74.71;99453.31;409597;24;1258;-74
2022/05/03 00:07:10;;;;;;;316.80;118.47;;;;;;;12.92;74.90;99442.88;409799;24;926;-74
2022/05/03 00:07:24;;;;;;;312.83;118.50;;;;;;;12.93;75.34;99449.84;416212;23;1236;-73
2022/05/03 00:07:43;;;;;;;312.75;122.43;;;;;;;12.88;75.14;99446.59;416607;23;833;-73
2022/05/03 00:08:04;;;;;;;313.88;124.25;;;;;;;12.82;75.46;99444.31;417427;23;900;-74
2022/05/03 00:08:42;;;;;;;317.77;121.90;;;;;;;12.78;76.38;99445.38;415685;23;1363;-74
2022/05/03 00:08:56;;;;;;;316.92;117.47;;;;;;;12.76;76.53;99435.91;411298;23;1133;-74
2022/05/03 00:09:07;;;;;;;314.23;117.38;;;;;;;12.77;76.34;99441.06;415903;23;896;-74
2022/05/03 00:09:27;;;;;;;312.27;116.65;;;;;;;12.81;76.28;99445.22;419920;23;868;-74
2022/05/03 00:09:44;;;;;;;313.02;116.20;;;;;;;12.85;76.46;99438.88;413637;23;869;-74
2022/05/03 00:10:02;;;;;;;313.65;116.60;;;;;;;12.85;76.49;99436.25;415698;23;745;-75
2022/05/03 00:10:20;;;;;;;310.65;117.15;;;;;;;12.83;76.65;99445.16;413893;23;803;-74
2022/05/03 00:10:45;;;;;;;312.70;119.00;;;;;;;12.88;76.52;99441.34;415730;23;1494;-74
2022/05/03 00:11:32;;;;;;;310.98;117.45;;;;;;;12.89;76.84;99437.78;413257;23;1354;-74
2022/05/03 00:11:51;;;;;;;312.48;114.63;;;;;;;12.87;76.89;99444.06;407695;24;884;-74
2022/05/03 00:12:05;;;;;;;310.63;115.18;;;;;;;12.91;77.15;99440.34;409829;24;841;-74
2022/05/03 00:12:17;;;;;;;308.95;117.10;;;;;;;12.95;77.16;99440.09;408008;24;1406;-74
2022/05/03 00:12:51;;;;;;;309.67;119.82;;;;;;;12.96;77.52;99439.16;411999;23;1260;-74
2022/05/03 00:13:04;;;;;;;313.10;121.75;;;;;;;13.00;76.94;99448.56;409747;24;1001;-74
2022/05/03 00:13:17;;;;;;;312.85;118.50;;;;;;;13.03;77.17;99441.44;409952;24;1048;-74
2022/05/03 00:13:29;;;;;;;312.20;116.65;;;;;;;13.06;77.08;99449.16;402230;24;1424;-74
2022/05/03 00:14:00;;;;;;;310.65;115.97;;;;;;;13.14;76.82;99444.34;405727;24;831;-74
2022/05/03 00:14:37;;;;;;;305.35;114.53;;;;;;;13.20;76.93;99441.41;408531;23;1184;-74
2022/05/03 00:14:54;;;;;;;309.50;115.97;;;;;;;13.28;76.98;99444.50;417905;23;818;-74
2022/05/03 00:15:05;;;;;;;312.27;118.47;;;;;;;13.28;76.83;99437.44;417466;23;852;-74
2022/05/03 00:15:16;;;;;;;313.05;118.43;;;;;;;13.31;77.22;99445.16;415604;23;1199;-74
2022/05/03 00:15:26;;;;;;;308.97;116.27;;;;;;;13.31;77.22;99439.91;415704;23;1242;-74
2022/05/03 00:15:38;;;;;;;308.35;116.10;;;;;;;13.29;77.18;99446.19;414074;23;1197;-74
2022/05/03 00:15:49;;;;;;;311.92;117.18;;;;;;;13.24;77.09;99448.22;413764;23;1269;-75
2022/05/03 00:15:59;;;;;;;314.40;116.95;;;;;;;13.20;77.27;99444.91;413994;23;1264;-74
2022/05/03 00:16:10;;;;;;;313.27;117.37;;;;;;;13.17;77.34;99447.69;411708;23;1010;-74
2022/05/03 00:16:20;;;;;;;313.92;118.80;;;;;;;13.15;77.62;99452.16;413743;23;1318;-74
2022/05/03 00:16:33;;;;;;;316.03;120.70;;;;;;;13.11;77.18;99447.13;415505;23;1365;-74
2022/05/03 00:16:44;;;;;;;314.88;120.38;;;;;;;13.08;76.67;99442.91;411889;23;1079;-74
2022/05/03 00:16:54;;;;;;;315.80;121.55;;;;;;;13.06;76.91;99444.75;412857;23;723;-74
2022/05/03 00:17:05;;;;;;;315.60;121.43;;;;;;;13.03;76.62;99455.44;419605;23;1276;-74
2022/05/03 00:17:16;;;;;;;320.30;125.07;;;;;;;12.97;77.42;99440.88;414547;23;916;-73
2022/05/03 00:17:26;;;;;;;319.13;124.78;;;;;;;12.95;77.63;99447.13;410661;23;841;-74
2022/05/03 00:17:36;;;;;;;319.93;125.17;;;;;;;12.94;77.71;99445.44;413563;23;993;-74
2022/05/03 00:17:47;;;;;;;312.90;122.77;;;;;;;12.93;77.35;99449.84;411985;23;1020;-74
2022/05/03 00:17:57;;;;;;;311.10;120.47;;;;;;;12.89;77.07;99448.31;413598;23;1243;-74
2022/05/03 00:18:08;;;;;;;309.67;119.43;;;;;;;12.89;77.49;99443.06;414134;23;1515;-74
2022/05/03 00:18:18;;;;;;;310.77;118.72;;;;;;;12.90;77.55;99444.75;417964;23;1224;-74
2022/05/03 00:18:29;;;;;;;311.43;119.87;;;;;;;12.93;77.32;99444.59;417639;23;1901;-74
2022/05/03 00:18:42;;;;;;;309.45;119.13;;;;;;;12.98;77.42;99447.81;411877;23;873;-73
2022/05/03 00:18:52;;;;;;;309.55;118.13;;;;;;;13.03;77.05;99444.06;417837;23;883;-74
2022/05/03 00:19:05;;;;;;;311.00;118.77;;;;;;;13.05;76.99;99442.22;415355;23;1142;-74
2022/05/03 00:19:15;;;;;;;311.20;118.07;;;;;;;13.11;76.77;99447.13;419842;23;1291;-74
2022/05/03 00:19:26;;;;;;;312.73;117.88;;;;;;;13.12;76.80;99443.56;415935;23;837;-75
2022/05/03 00:19:36;;;;;;;314.23;118.90;;;;;;;13.15;76.60;99439.00;413799;23;1420;-74
2022/05/03 00:19:47;;;;;;;314.37;119.77;;;;;;;13.17;77.03;99442.44;415739;23;857;-74
2022/05/03 00:19:58;;;;;;;314.17;120.10;;;;;;;13.19;77.05;99435.31;411872;23;724;-74
2022/05/03 00:20:09;;;;;;;313.98;121.32;;;;;;;13.22;76.91;99444.81;415416;23;1363;-74
2022/05/03 00:20:20;;;;;;;314.08;121.13;;;;;;;13.23;76.89;99442.09;417463;23;1214;-74
2022/05/03 00:20:31;;;;;;;314.15;121.90;;;;;;;13.23;76.72;99441.25;415564;23;1397;-74
2022/05/03 00:20:42;;;;;;;314.97;122.47;;;;;;;13.21;76.75;99437.88;413564;23;893;-74
2022/05/03 00:20:52;;;;;;;314.20;122.70;;;;;;;13.13;77.07;99443.50;413982;23;1370;-74
2022/05/03 00:21:02;;;;;;;313.63;122.47;;;;;;;13.14;77.38;99441.72;414153;23;813;-74
2022/05/03 00:21:13;;;;;;;311.17;122.10;;;;;;;13.14;77.13;99441.72;413633;23;1173;-74
2022/05/03 00:21:23;;;;;;;311.83;120.83;;;;;;;13.12;77.11;99439.16;411739;23;1352;-75
2022/05/03 00:21:37;;;;;;;312.70;121.47;;;;;;;13.12;77.22;99446.22;415069;23;1058;-74
2022/05/03 00:21:47;;;;;;;310.75;119.80;;;;;;;13.13;77.32;99445.28;413853;23;1277;-74
2022/05/03 00:21:58;;;;;;;310.77;118.50;;;;;;;13.11;77.37;99437.47;411403;23;1334;-74
2022/05/03 00:22:08;;;;;;;313.13;119.78;;;;;;;13.06;77.92;99438.66;417589;23;1012;-74
2022/05/03 00:22:19;;;;;;;314.50;122.70;;;;;;;13.07;78.02;99429.84;414242;23;775;-74
2022/05/03 00:22:32;;;;;;;318.02;124.20;;;;;;;12.99;77.92;99444.25;414278;23;1294;-74
2022/05/03 00:22:43;;;;;;;320.42;125.65;;;;;;;12.94;78.11;99441.03;413988;23;812;-74
2022/05/03 00:22:54;;;;;;;320.83;124.35;;;;;;;12.96;78.24;99439.16;417681;23;1188;-73
2022/05/03 00:23:04;;;;;;;317.60;123.28;;;;;;;12.99;78.05;99433.75;415722;23;1426;-74
2022/05/03 00:23:15;;;;;;;315.42;120.95;;;;;;;13.05;77.88;99435.19;413641;23;993;-74
2022/05/03 00:23:25;;;;;;;315.67;120.00;;;;;;;13.08;77.84;99439.41;410009;24;869;-74
2022/05/03 00:23:36;;;;;;;315.20;120.17;;;;;;;13.11;77.46;99434.84;411191;23;1172;-74
2022/05/03 00:23:46;;;;;;;315.52;121.38;;;;;;;13.13;77.54;99440.03;416046;23;1261;-74
2022/05/03 00:23:57;;;;;;;315.87;122.13;;;;;;;13.10;77.77;99433.16;413878;23;936;-74
2022/05/03 00:24:07;;;;;;;314.60;121.30;;;;;;;13.08;77.59;99431.53;413651;23;1349;-75
2022/05/03 00:24:18;;;;;;;313.47;121.50;;;;;;;13.05;78.00;99443.06;409924;24;836;-74
2022/05/03 00:24:28;;;;;;;313.77;120.70;;;;;;;13.03;78.02;99434.41;413682;23;790;-74
2022/05/03 00:24:40;;;;;;;314.20;121.20;;;;;;;13.02;78.27;99432.72;414090;23;924;-75
2022/05/03 00:24:54;;;;;;;315.33;121.18;;;;;;;12.96;78.44;99438.31;415848;23;900;-74
2022/05/03 00:25:05;;;;;;;315.42;121.20;;;;;;;12.90;78.55;99444.75;413637;23;1335;-74
2022/05/03 00:25:15;;;;;;;314.58;120.10;;;;;;;12.89;78.56;99443.06;413745;23;1281;-74
2022/05/03 00:25:26;;;;;;;314.05;117.18;;;;;;;12.87;78.97;99434.41;419775;23;900;-74
2022/05/03 00:25:36;;;;;;;314.07;118.10;;;;;;;12.86;79.01;99440.59;417545;23;1359;-74
2022/05/03 00:25:47;;;;;;;315.17;119.23;;;;;;;12.89;79.10;99437.78;414600;23;1443;-74
2022/05/03 00:25:57;;;;;;;315.27;120.15;;;;;;;12.91;78.92;99441.19;410217;24;780;-74
2022/05/03 00:26:08;;;;;;;316.75;119.95;;;;;;;12.94;78.98;99438.41;414823;23;787;-74
2022/05/03 00:26:18;;;;;;;317.17;119.63;;;;;;;12.96;78.82;99439.16;415638;23;891;-74
2022/05/03 00:26:29;;;;;;;322.03;122.23;;;;;;;12.99;78.99;99441.63;412145;23;1305;-74
2022/05/03 00:26:39;;;;;;;321.13;121.78;;;;;;;13.04;78.99;99443.13;411670;23;1321;-74
2022/05/03 00:26:49;;;;;;;317.50;120.00;;;;;;;13.05;78.92;99447.47;411758;23;1378;-74
2022/05/03 00:27:00;;;;;;;313.40;119.10;;;;;;;13.03;79.21;99438.81;413849;23;771;-74
2022/05/03 00:27:10;;;;;;;314.60;119.50;;;;;;;13.01;79.07;99436.28;411161;23;1155;-74
2022/05/03 00:27:27;;;;;;;317.63;122.97;;;;;;;12.97;79.67;99440.88;410626;23;810;-74
2022/05/03 00:27:37;;;;;;;315.70;124.13;;;;;;;12.91;79.75;99441.19;412226;23;1372;-74
2022/05/03 00:27:48;;;;;;;314.23;123.70;;;;;;;12.87;79.54;99439.66;416144;23;1310;-74
2022/05/03 00:27:58;;;;;;;313.67;124.20;;;;;;;12.82;79.98;99441.69;415509;23;816;-74
2022/05/03 00:28:10;;;;;;;313.52;122.60;;;;;;;12.81;80.03;99437.34;415732;23;1293;-74
2022/05/03 00:28:20;;;;;;;314.52;121.82;;;;;;;12.81;80.33;99439.97;412148;23;1345;-74
2022/05/03 00:28:31;;;;;;;316.00;120.90;;;;;;;12.83;80.47;99434.66;411812;23;1170;-74
2022/05/03 00:28:41;;;;;;;317.55;120.70;;;;;;;12.86;80.15;99443.22;411694;23;877;-74
2022/05/03 00:28:52;;;;;;;316.60;120.57;;;;;;;12.89;80.25;99439.56;415717;23;1284;-74
2022/05/03 00:29:03;;;;;;;315.75;120.15;;;;;;;12.93;80.14;99438.50;415659;23;780;-74
2022/05/03 00:29:13;;;;;;;315.27;120.55;;;;;;;12.93;79.78;99441.97;415624;23;1209;-74
2022/05/03 00:29:24;;;;;;;315.60;121.17;;;;;;;12.93;80.03;99439.34;412066;23;798;-74
2022/05/03 00:29:34;;;;;;;314.83;121.07;;;;;;;12.94;79.77;99440.19;413938;23;762;-74
2022/05/03 00:29:44;;;;;;;312.17;120.33;;;;;;;12.92;79.88;99432.38;415531;23;1170;-74
2022/05/03 00:29:56;;;;;;;311.27;119.07;;;;;;;12.92;79.82;99437.63;419912;23;848;-74
2022/05/03 00:30:07;;;;;;;312.83;119.50;;;;;;;12.94;79.74;99438.41;414759;23;1444;-74
2022/05/03 00:30:17;;;;;;;314.83;120.65;;;;;;;12.94;79.74;99432.31;411898;23;829;-75
2022/05/03 00:30:28;;;;;;;312.88;119.25;;;;;;;12.98;79.45;99437.31;415385;23;1182;-74
2022/05/03 00:30:38;;;;;;;310.23;118.43;;;;;;;13.00;79.35;99437.19;412181;23;1257;-74
2022/05/03 00:30:49;;;;;;;309.33;117.88;;;;;;;13.04;79.54;99440.50;413849;23;840;-74
2022/05/03 00:30:59;;;;;;;310.93;119.53;;;;;;;13.04;79.46;99435.25;414913;23;1270;-74
2022/05/03 00:31:10;;;;;;;312.77;120.85;;;;;;;13.00;79.61;99432.78;410955;23;910;-74
2022/05/03 00:31:20;;;;;;;312.67;122.33;;;;;;;13.00;79.62;99435.41;413774;23;1230;-74
2022/05/03 00:31:31;;;;;;;313.17;120.57;;;;;;;13.01;79.79;99433.63;413924;23;1332;-73
2022/05/03 00:31:41;;;;;;;313.00;119.93;;;;;;;13.04;79.66;99445.78;413940;23;758;-74
2022/05/03 00:31:51;;;;;;;312.25;119.35;;;;;;;13.06;79.75;99438.66;413935;23;754;-74
2022/05/03 00:32:02;;;;;;;312.20;120.77;;;;;;;13.07;79.62;99437.72;409677;24;832;-74
2022/05/03 00:32:13;;;;;;;312.83;122.63;;;;;;;13.09;79.74;99438.50;409250;24;870;-74
2022/05/03 00:32:23;;;;;;;317.17;124.82;;;;;;;13.10;79.76;99432.31;408574;24;1008;-75
2022/05/03 00:32:34;;;;;;;319.33;126.90;;;;;;;13.12;79.78;99438.31;412368;23;798;-74
2022/05/03 00:32:45;;;;;;;321.90;126.13;;;;;;;13.14;79.64;99441.72;412166;23;1034;-73
2022/05/03 00:32:56;;;;;;;317.67;124.18;;;;;;;13.14;79.61;99436.47;413665;23;1561;-75
2022/05/03 00:33:07;;;;;;;314.77;121.47;;;;;;;13.12;79.39;99438.31;413598;23;1319;-74
2022/05/03 00:33:18;;;;;;;314.98;120.55;;;;;;;13.06;78.79;99438.66;415735;23;837;-74
2022/05/03 00:33:29;;;;;;;316.23;121.53;;;;;;;13.00;79.09;99440.69;413804;23;881;-74
2022/05/03 00:33:39;;;;;;;315.85;121.95;;;;;;;12.93;78.81;99439.34;411617;23;822;-74
2022/05/03 00:33:50;;;;;;;313.67;120.78;;;;;;;12.89;78.80;99443.06;417440;23;1186;-74
2022/05/03 00:34:01;;;;;;;312.03;119.30;;;;;;;12.83;78.42;99438.13;415689;23;1175;-74
2022/05/03 00:34:11;;;;;;;311.05;117.97;;;;;;;12.82;78.92;99441.69;411932;23;791;-74
2022/05/03 00:34:22;;;;;;;310.80;118.73;;;;;;;12.81;78.89;99437.34;410310;24;906;-74
2022/05/03 00:34:35;;;;;;;312.90;119.35;;;;;;;12.80;79.16;99438.28;409854;24;803;-74
2022/05/03 00:34:45;;;;;;;313.60;120.12;;;;;;;12.86;79.22;99442.38;411722;23;1371;-74
2022/05/03 00:34:57;;;;;;;312.80;120.73;;;;;;;12.90;79.15;99441.28;410026;24;1180;-74
2022/05/03 00:35:09;;;;;;;313.40;121.13;;;;;;;12.92;79.18;99437.63;415629;23;1420;-74
2022/05/03 00:35:21;;;;;;;318.40;124.13;;;;;;;12.92;79.41;99437.63;414607;23;1186;-74
2022/05/03 00:35:32;;;;;;;319.27;124.38;;;;;;;12.91;79.59;99438.56;411589;23;1352;-74
2022/05/03 00:35:43;;;;;;;322.17;126.50;;;;;;;12.93;79.45;99438.50;411708;23;1405;-74
2022/05/03 00:35:53;;;;;;;320.98;124.40;;;;;;;12.92;79.38;99442.03;411039;23;924;-74
2022/05/03 00:36:04;;;;;;;322.13;125.30;;;;;;;12.89;79.46;99437.78;413045;23;1258;-74
2022/05/03 00:36:14;;;;;;;318.25;122.32;;;;;;;12.89;79.55;99436.94;413864;23;754;-74
2022/05/03 00:36:25;;;;;;;318.10;122.90;;;;;;;12.87;79.60;99437.03;415804;23;831;-75
2022/05/03 00:36:35;;;;;;;316.90;121.85;;;;;;;12.84;79.30;99434.56;411974;23;1289;-75
2022/05/03 00:36:46;;;;;;;316.67;122.40;;;;;;;12.84;79.25;99439.81;411842;23;804;-74
2022/05/03 00:36:56;;;;;;;315.70;121.65;;;;;;;12.81;79.48;99434.72;411838;23;821;-74
2022/05/03 00:37:07;;;;;;;315.60;121.07;;;;;;;12.83;79.20;99438.13;415855;23;853;-74
2022/05/03 00:37:17;;;;;;;315.10;122.00;;;;;;;12.85;79.48;99441.50;412051;23;1016;-74
2022/05/03 00:37:28;;;;;;;317.53;123.87;;;;;;;12.84;79.35;99437.19;412233;23;1075;-74
2022/05/03 00:37:39;;;;;;;316.60;124.13;;;;;;;12.80;79.34;99438.28;411704;23;1266;-74
2022/05/03 00:37:49;;;;;;;319.23;125.10;;;;;;;12.81;79.68;99434.72;408427;24;1211;-74
2022/05/03 00:37:59;;;;;;;318.57;124.90;;;;;;;12.83;79.63;99439.91;413581;23;853;-74
2022/05/03 00:38:10;;;;;;;318.50;125.15;;;;;;;12.85;79.50;99438.03;415689;23;1013;-74
2022/05/03 00:38:20;;;;;;;316.60;123.03;;;;;;;12.86;79.10;99442.38;415949;23;849;-74
2022/05/03 00:38:34;;;;;;;316.45;121.80;;;;;;;12.86;79.33;99440.59;415438;23;1909;-75
2022/05/03 00:38:45;;;;;;;317.65;122.43;;;;;;;12.86;79.51;99439.75;417672;23;1264;-74
2022/05/03 00:38:55;;;;;;;319.17;123.63;;;;;;;12.88;79.56;99441.34;419596;23;1279;-74
2022/05/03 00:39:05;;;;;;;317.92;121.85;;;;;;;12.86;79.55;99437.97;419589;23;710;-74
2022/05/03 00:39:16;;;;;;;319.07;123.17;;;;;;;12.86;79.43;99443.22;413730;23;1542;-74
2022/05/03 00:39:26;;;;;;;316.90;120.67;;;;;;;12.89;79.54;99440.44;411746;23;1170;-74
2022/05/03 00:39:37;;;;;;;315.87;121.23;;;;;;;12.92;79.45;99437.63;413956;23;1361;-74
2022/05/03 00:39:47;;;;;;;313.92;120.55;;;;;;;12.93;79.27;99439.34;413854;23;1251;-74
2022/05/03 00:39:57;;;;;;;313.63;121.60;;;;;;;12.97;79.22;99438.25;411729;23;793;-74
2022/05/03 00:40:10;;;;;;;313.10;121.37;;;;;;;12.97;79.36;99435.63;411781;23;837;-74
2022/05/03 00:40:21;;;;;;;314.70;120.43;;;;;;;12.95;79.79;99432.22;411822;23;755;-74
2022/05/03 00:40:32;;;;;;;315.60;120.07;;;;;;;12.89;79.29;99443.06;409859;24;1469;-74
2022/05/03 00:40:47;;;;;;;317.70;121.78;;;;;;;12.86;79.22;99440.59;413542;23;1398;-74
2022/05/03 00:40:59;;;;;;;316.52;122.70;;;;;;;12.83;79.32;99429.38;415614;23;1265;-74
2022/05/03 00:41:10;;;;;;;317.55;123.07;;;;;;;12.78;79.51;99434.88;413620;23;908;-74
2022/05/03 00:41:43;;;;;;;317.55;122.53;;;;;;;12.78;80.26;99431.41;415593;23;1272;-74
2022/05/03 00:42:26;;;;;;;311.42;117.05;;;;;;;12.71;80.12;99433.50;413739;23;879;-74
2022/05/03 00:42:47;;;;;;;319.45;126.03;;;;;;;12.69;80.19;99435.38;408248;24;1475;-74
2022/05/03 00:43:42;;;;;;;314.20;123.28;;;;;;;12.67;80.33;99442.47;415365;23;858;-74
2022/05/03 00:43:58;;;;;;;312.45;117.53;;;;;;;12.80;79.96;99443.53;409645;24;1364;-75
2022/05/03 00:45:08;;;;;;;307.98;118.60;;;;;;;13.00;80.28;99443.31;413569;23;830;-74
2022/05/03 00:45:50;;;;;;;311.90;120.35;;;;;;;13.03;80.57;99446.69;417845;23;1228;-74
2022/05/03 00:46:22;;;;;;;310.15;117.68;;;;;;;12.95;80.06;99441.88;413808;23;1370;-75
2022/05/03 00:46:36;;;;;;;316.48;121.07;;;;;;;12.86;80.17;99443.22;411667;23;1247;-74
2022/05/03 00:46:47;;;;;;;317.35;120.88;;;;;;;12.78;80.21;99432.25;409721;24;1262;-74
2022/05/03 00:47:00;;;;;;;319.25;121.10;;;;;;;12.82;80.10;99441.69;407735;24;1338;-74
2022/05/03 00:47:15;;;;;;;317.63;121.03;;;;;;;12.81;80.36;99441.75;412933;23;1250;-74
2022/05/03 00:47:50;;;;;;;316.88;123.35;;;;;;;12.82;80.11;99441.69;413950;23;1210;-74
2022/05/03 00:48:31;;;;;;;314.98;122.93;;;;;;;12.88;80.06;99440.50;413497;23;844;-74
2022/05/03 00:49:09;;;;;;;315.27;121.00;;;;;;;12.86;80.15;99442.38;413620;23;1327;-74
2022/05/03 00:49:25;;;;;;;313.15;118.10;;;;;;;12.92;80.05;99440.25;413559;23;809;-73
2022/05/03 00:50:05;;;;;;;311.33;117.45;;;;;;;12.93;80.33;99449.84;419805;23;863;-74
2022/05/03 00:50:39;;;;;;;318.10;119.43;;;;;;;12.86;80.43;99443.22;421529;23;851;-73
2022/05/03 00:50:59;;;;;;;312.65;118.55;;;;;;;12.80;80.37;99447.94;417461;23;866;-74
2022/05/03 00:51:16;;;;;;;312.33;120.80;;;;;;;12.73;80.96;99446.56;411672;23;1433;-74
2022/05/03 00:51:42;;;;;;;309.98;119.32;;;;;;;12.68;81.22;99438.06;414005;23;1397;-74
2022/05/03 00:52:06;;;;;;;310.52;118.78;;;;;;;12.62;81.41;99441.84;417846;23;797;-74
2022/05/03 00:52:31;;;;;;;313.63;121.13;;;;;;;12.56;81.21;99443.03;414381;23;1464;-74
2022/05/03 00:52:47;;;;;;;316.23;125.47;;;;;;;12.51;81.86;99442.44;412087;23;1509;-74
2022/05/03 00:53:09;;;;;;;313.98;123.93;;;;;;;12.55;82.03;99437.88;413557;23;1385;-74
2022/05/03 00:53:32;;;;;;;312.77;118.85;;;;;;;12.56;82.21;99442.22;412245;23;813;-74
2022/05/03 00:54:08;;;;;;;312.98;118.63;;;;;;;12.61;82.46;99434.91;412439;23;1201;-73
2022/05/03 00:54:46;;;;;;;317.23;122.68;;;;;;;12.58;82.28;99442.94;415660;23;884;-75
2022/05/03 00:55:08;;;;;;;316.42;121.07;;;;;;;12.56;82.27;99445.66;411647;23;1395;-74
2022/05/03 00:55:40;;;;;;;315.10;121.88;;;;;;;12.58;82.35;99448.19;411637;23;1310;-74
2022/05/03 00:55:59;;;;;;;314.25;119.53;;;;;;;12.57;82.45;99436.84;415799;23;860;-74
2022/05/03 00:56:38;;;;;;;315.50;119.68;;;;;;;12.53;82.29;99450.25;416822;23;907;-74
2022/05/03 00:57:03;;;;;;;311.35;116.35;;;;;;;12.46;82.38;99438.34;417383;23;1330;-74
2022/05/03 00:57:29;;;;;;;318.65;119.57;;;;;;;12.52;82.32;99438.03;415446;23;885;-74
2022/05/03 00:57:41;;;;;;;321.92;125.50;;;;;;;12.51;82.26;99442.44;416126;23;1317;-74
2022/05/03 00:58:16;;;;;;;321.30;125.80;;;;;;;12.48;82.44;99439.13;414581;23;1203;-74
2022/05/03 00:58:33;;;;;;;315.55;118.82;;;;;;;12.52;82.45;99438.88;413701;23;1151;-74
2022/05/03 00:58:58;;;;;;;317.25;119.55;;;;;;;12.48;82.43;99434.72;415685;23;1359;-74
2022/05/03 00:59:43;;;;;;;314.90;119.55;;;;;;;12.45;82.68;99437.50;419507;23;1469;-74
2022/05/03 01:00:02;;;;;;;314.73;120.25;;;;;;;12.47;82.68;99434.81;417696;23;791;-74
2022/05/03 01:00:14;;;;;;;312.50;119.40;;;;;;;12.44;83.12;99434.97;417574;23;1544;-74
2022/05/03 01:00:24;;;;;;;312.17;118.75;;;;;;;12.45;83.00;99441.91;418607;23;876;-74
2022/05/03 01:00:35;;;;;;;313.42;119.05;;;;;;;12.50;83.16;99434.66;413630;23;1269;-74
2022/05/03 01:01:03;;;;;;;312.73;118.73;;;;;;;12.61;82.70;99433.13;413821;23;852;-74
2022/05/03 01:01:37;;;;;;;312.20;118.45;;;;;;;12.65;82.44;99434.66;413786;23;1155;-75
2022/05/03 01:02:06;;;;;;;311.23;118.25;;;;;;;12.60;82.47;99425.34;413768;23;1008;-74
2022/05/03 01:02:17;;;;;;;312.63;120.28;;;;;;;12.56;82.01;99434.34;412357;23;968;-74
2022/05/03 01:02:52;;;;;;;314.52;123.55;;;;;;;12.54;83.16;99441.44;412188;23;1279;-74
2022/05/03 01:03:44;;;;;;;312.35;122.38;;;;;;;12.51;83.34;99436.34;413271;23;1097;-74
2022/05/03 01:04:10;;;;;;;312.98;120.85;;;;;;;12.48;82.83;99437.34;407705;24;790;-75
2022/05/03 01:04:25;;;;;;;311.95;120.70;;;;;;;12.45;82.96;99441.91;414012;23;1327;-74
2022/05/03 01:04:54;;;;;;;312.83;118.90;;;;;;;12.43;82.84;99439.34;410044;24;850;-75
2022/05/03 01:05:09;;;;;;;315.20;120.65;;;;;;;12.41;83.04;99435.13;413621;23;837;-74
2022/05/03 01:05:24;;;;;;;319.63;123.32;;;;;;;12.41;83.27;99435.97;413702;23;974;-73
2022/05/03 01:05:55;;;;;;;323.08;123.72;;;;;;;12.44;83.32;99434.97;413746;23;751;-73
2022/05/03 01:06:21;;;;;;;313.77;120.32;;;;;;;12.40;83.55;99436.03;411918;23;916;-74
2022/05/03 01:06:38;;;;;;;315.45;120.57;;;;;;;12.41;83.60;99429.88;415770;23;890;-74
2022/05/03 01:06:56;;;;;;;314.92;119.50;;;;;;;12.40;83.50;99433.41;415561;23;870;-74
2022/05/03 01:07:13;;;;;;;314.55;120.28;;;;;;;12.42;83.55;99436.81;415798;23;922;-74
2022/05/03 01:07:43;;;;;;;316.55;122.68;;;;;;;12.40;83.68;99441.28;414381;23;781;-74
2022/05/03 01:08:05;;;;;;;317.33;125.53;;;;;;;12.47;83.65;99440.06;415208;23;940;-74
2022/05/03 01:08:56;;;;;;;316.23;119.78;;;;;;;12.53;83.76;99429.25;411756;23;980;-75
2022/05/03 01:09:09;;;;;;;318.00;121.97;;;;;;;12.57;83.36;99434.22;407546;24;1387;-74
2022/05/03 01:09:24;;;;;;;319.42;121.90;;;;;;;12.60;83.35;99420.09;411568;23;1085;-74
2022/05/03 01:09:39;;;;;;;318.52;120.28;;;;;;;12.65;83.26;99428.56;407757;24;736;-74
2022/05/03 01:10:13;;;;;;;314.05;118.32;;;;;;;12.61;83.59;99432.28;410334;23;1392;-75
2022/05/03 01:10:26;;;;;;;316.05;119.30;;;;;;;12.56;83.29;99429.09;407865;24;927;-74
2022/05/03 01:10:56;;;;;;;317.10;118.95;;;;;;;12.53;83.26;99427.47;404086;24;1174;-74
2022/05/03 01:11:12;;;;;;;316.58;119.13;;;;;;;12.56;83.55;99429.09;403726;24;996;-74
2022/05/03 01:11:48;;;;;;;313.23;118.43;;;;;;;12.52;83.74;99435.41;403947;24;885;-74
2022/05/03 01:12:17;;;;;;;313.67;117.70;;;;;;;12.51;82.91;99436.34;413191;23;1363;-74
2022/05/03 01:12:45;;;;;;;314.20;122.05;;;;;;;12.41;83.52;99432.50;412274;23;926;-75
2022/05/03 01:13:03;;;;;;;310.70;121.60;;;;;;;12.39;84.01;99432.56;413257;23;1262;-74
2022/05/03 01:13:25;;;;;;;313.50;120.53;;;;;;;12.48;83.97;99428.63;417519;23;1276;-74
2022/05/03 01:13:41;;;;;;;313.48;119.85;;;;;;;12.55;84.02;99425.59;417767;23;976;-74
2022/05/03 01:14:23;;;;;;;315.77;122.60;;;;;;;12.66;83.79;99431.13;411609;23;888;-75
2022/05/03 01:14:58;;;;;;;307.75;117.05;;;;;;;12.78;83.67;99426.16;415585;23;830;-74
2022/05/03 01:15:10;;;;;;;311.73;115.45;;;;;;;12.79;83.79;99431.34;417553;23;833;-74
2022/05/03 01:15:25;;;;;;;312.10;116.65;;;;;;;12.81;83.43;99431.25;415481;23;1288;-74
2022/05/03 01:15:41;;;;;;;310.70;116.55;;;;;;;12.84;83.56;99429.31;411736;23;861;-75
2022/05/03 01:15:55;;;;;;;314.00;117.00;;;;;;;12.86;83.34;99434.47;409897;24;1777;-74
2022/05/03 01:16:16;;;;;;;321.20;120.65;;;;;;;12.88;83.54;99427.38;415464;23;1267;-74
2022/05/03 01:16:33;;;;;;;324.48;122.30;;;;;;;12.91;83.75;99429.84;415886;23;1022;-74
2022/05/03 01:16:59;;;;;;;321.02;119.55;;;;;;;12.94;83.70;99430.53;413932;23;1306;-74
2022/05/03 01:17:10;;;;;;;315.00;118.97;;;;;;;12.96;83.62;99427.81;412702;23;1123;-74
2022/05/03 01:17:34;;;;;;;318.30;120.85;;;;;;;12.97;83.45;99429.50;414604;23;1244;-74
2022/05/03 01:17:45;;;;;;;321.02;126.82;;;;;;;12.97;83.56;99430.38;413650;23;1609;-74
2022/05/03 01:18:11;;;;;;;316.88;125.22;;;;;;;12.98;84.29;99431.22;415217;23;868;-74
2022/05/03 01:18:25;;;;;;;310.88;120.00;;;;;;;12.97;83.25;99435.63;415909;23;892;-74
2022/05/03 01:18:46;;;;;;;313.80;120.90;;;;;;;12.97;83.18;99430.38;411754;23;2011;-74
2022/05/03 01:19:00;;;;;;;311.30;118.68;;;;;;;12.90;82.24;99421.13;417395;23;1263;-74
2022/05/03 01:19:34;;;;;;;310.92;120.43;;;;;;;12.83;81.80;99430.25;417355;23;1350;-74